Tropical Cyclones
[Index]
Main Index Home Page Stock Weather Photos Extreme Storms Discussion Storm News and Storm Chasing Reports Tropical Cyclones / Hurricanes / Typhoons Weather Data and Links Wild Fires / Bushfires Weather Observation Techniques Weather Picture Catalogue Tornado Pictures and Reports Stock Video Footage and DVDs for sale
Season 2001-2002 Tropical Cyclone ALEX-ANDRE Track Map
Season 2001-2002 Summaries: [BoM-AU] [JTWC-AU] [JTWC-SIO] [JTWC-SPAC] [JTWC-SH]
<<- Previous TC | JTWC 2001-2002 Season | Next TC ->>

click for intensity scale information  Lat/long Grid: Show Hide

 Date Labels: Show Hide

Joint Typhoon Warning Centre Cyclone Data

Name: ALEX-ANDRE

24 Oct 2001 18:00 UTC to 01 Nov 2001 12:00 UTC

    date/time    lat    long     hPa   cat  kts
2001-10-24 18    7.0    97.5    1002         25          
2001-10-25 00    7.0    96.8    1002         25          
2001-10-25 06    7.0    96.2    1002         25          
2001-10-25 12    7.3    95.8    1002         25          
2001-10-25 18    7.7    95.4    1002         30          
2001-10-26 00    7.9    95.0    1000         30          
2001-10-26 06    8.1    94.4     997         35          
2001-10-26 12    8.2    93.8     997         35          
2001-10-26 18    8.0    93.1     997         35          
2001-10-27 00    7.8    92.4     997         35          
2001-10-27 06    7.7    91.7     997         35          
2001-10-27 12    7.6    91.0     994    1    40          
2001-10-27 18    7.7    90.3     987    1    50          
2001-10-28 00    7.9    89.6     984    2    55          
2001-10-28 06    8.1    89.0     984    2    55          
2001-10-28 12    8.2    88.3     984    2    55          
2001-10-28 18    8.4    87.4     984    2    55          
2001-10-29 00    8.6    86.4     984    2    55          
2001-10-29 06    8.8    85.2     984    2    55          
2001-10-29 12    8.9    84.3     984    2    55          
2001-10-29 18    8.7    83.5     991    1    45          
2001-10-30 00    8.1    83.0     991    1    45          
2001-10-30 06    7.8    82.8     991    1    45          
2001-10-30 12    7.5    82.6     991    1    45          
2001-10-30 18    7.3    82.3     997         35          
2001-10-31 00    7.5    82.0     997         35          
2001-10-31 06    8.0    81.5     997         35          
2001-10-31 12    8.7    80.8     997         35          
2001-10-31 18    9.8    80.0    1000         30          
2001-11-01 00   10.5    79.5    1000         30          
2001-11-01 06   11.4    79.0    1000         30          
2001-11-01 12   12.3    78.6    1002         25          
Winds are 1-min average.

Tropical cyclone tracks developed by Michael Bath using data from the Joint Typhoon Warning Centre Best Tracks and Google Maps.


[Australian Severe Weather index] [Copyright Notice] [Email Contacts] [Search This Site] [Privacy Policy]
Document: tropical_cyclone_alex-andre.htm Updated: 28 June 2017